Knickerbocker, Texas
Current Conditions -  °F | °C
As of 12:37 PM on Saturday 20 Dec 2014 (Local Time) from KSJT Reporting Station
Overcast Overcast  
Wind Chill: 51°   Ceiling: 1500
Heat Index: 51°   Visibility: 10mi
Dew Point: 44°   Wind: 6mph
Humidity: 77%   Direction: 120°ESE
Pressure: 30.17"   Gusts: NA
Location:  31.27°N, 100.62°W
Report Text: KSJT 201837Z 12005KT 10SM BKN015 OVC020 11/07 A3017 RMK AO2 T01060067
Loading
Personal Weather Stations






























Interactive Weather Map New forecast layout! Learn more

10-Day Weather Forecast

Advertisements
Track Severe Weather on mobile